sensor_id;sensor_type;location;lat;lon;timestamp;pressure;altitude;pressure_sealevel;temperature;humidity
69257;BME280;56376;53.356;-1.748;2024-01-27T00:01:14;100955.13;;;3.17;100.00
69257;BME280;56376;53.356;-1.748;2024-01-27T00:03:39;100951.72;;;3.19;100.00
69257;BME280;56376;53.356;-1.748;2024-01-27T00:06:05;100950.91;;;3.22;100.00
69257;BME280;56376;53.356;-1.748;2024-01-27T00:08:30;100947.53;;;3.26;100.00
69257;BME280;56376;53.356;-1.748;2024-01-27T00:10:56;100957.91;;;3.29;100.00
69257;BME280;56376;53.356;-1.748;2024-01-27T00:13:21;100957.94;;;3.32;100.00
69257;BME280;56376;53.356;-1.748;2024-01-27T00:15:47;100946.78;;;3.33;100.00
69257;BME280;56376;53.356;-1.748;2024-01-27T00:18:12;100946.00;;;3.39;100.00
69257;BME280;56376;53.356;-1.748;2024-01-27T00:20:38;100940.00;;;3.40;100.00
69257;BME280;56376;53.356;-1.748;2024-01-27T00:23:04;100939.16;;;3.41;100.00
69257;BME280;56376;53.356;-1.748;2024-01-27T00:25:29;100946.09;;;3.43;100.00
69257;BME280;56376;53.356;-1.748;2024-01-27T00:27:55;100944.28;;;3.38;100.00
69257;BME280;56376;53.356;-1.748;2024-01-27T00:30:20;100944.22;;;3.35;100.00
69257;BME280;56376;53.356;-1.748;2024-01-27T00:32:47;100938.19;;;3.33;100.00
69257;BME280;56376;53.356;-1.748;2024-01-27T00:35:12;100938.19;;;3.33;100.00
69257;BME280;56376;53.356;-1.748;2024-01-27T00:37:40;100942.47;;;3.32;100.00
69257;BME280;56376;53.356;-1.748;2024-01-27T00:40:10;100926.09;;;3.32;100.00
69257;BME280;56376;53.356;-1.748;2024-01-27T00:42:37;100925.28;;;3.34;100.00
69257;BME280;56376;53.356;-1.748;2024-01-27T00:45:04;100919.28;;;3.37;100.00
69257;BME280;56376;53.356;-1.748;2024-01-27T00:47:30;100928.00;;;3.43;100.00
69257;BME280;56376;53.356;-1.748;2024-01-27T00:49:56;100923.78;;;3.49;100.00
69257;BME280;56376;53.356;-1.748;2024-01-27T00:52:22;100921.31;;;3.56;100.00
69257;BME280;56376;53.356;-1.748;2024-01-27T00:54:47;100917.94;;;3.60;100.00
69257;BME280;56376;53.356;-1.748;2024-01-27T00:57:13;100928.31;;;3.65;100.00
69257;BME280;56376;53.356;-1.748;2024-01-27T00:59:38;100928.38;;;3.69;100.00
69257;BME280;56376;53.356;-1.748;2024-01-27T01:02:04;100933.63;;;3.74;100.00
69257;BME280;56376;53.356;-1.748;2024-01-27T01:04:30;100934.56;;;3.79;100.00
69257;BME280;56376;53.356;-1.748;2024-01-27T01:06:55;100933.75;;;3.85;100.00
69257;BME280;56376;53.356;-1.748;2024-01-27T01:09:21;100926.03;;;3.88;100.00
69257;BME280;56376;53.356;-1.748;2024-01-27T01:11:47;100918.31;;;3.89;100.00
69257;BME280;56376;53.356;-1.748;2024-01-27T01:14:13;100918.34;;;3.93;100.00
69257;BME280;56376;53.356;-1.748;2024-01-27T01:16:39;100921.00;;;3.97;100.00
69257;BME280;56376;53.356;-1.748;2024-01-27T01:19:05;100924.50;;;4.01;100.00
69257;BME280;56376;53.356;-1.748;2024-01-27T01:21:30;100924.50;;;4.01;100.00
69257;BME280;56376;53.356;-1.748;2024-01-27T01:23:56;100927.13;;;4.04;100.00
69257;BME280;56376;53.356;-1.748;2024-01-27T01:26:22;100911.59;;;4.04;100.00
69257;BME280;56376;53.356;-1.748;2024-01-27T01:28:47;100915.94;;;4.06;100.00
69257;BME280;56376;53.356;-1.748;2024-01-27T01:31:13;100913.38;;;4.08;100.00
69257;BME280;56376;53.356;-1.748;2024-01-27T01:33:38;100918.56;;;4.09;100.00
69257;BME280;56376;53.356;-1.748;2024-01-27T01:36:04;100928.88;;;4.08;100.00
69257;BME280;56376;53.356;-1.748;2024-01-27T01:38:30;100927.19;;;4.08;100.00
69257;BME280;56376;53.356;-1.748;2024-01-27T01:40:55;100932.34;;;4.10;100.00
69257;BME280;56376;53.356;-1.748;2024-01-27T01:43:21;100943.56;;;4.10;100.00
69257;BME280;56376;53.356;-1.748;2024-01-27T01:45:46;100945.31;;;4.13;100.00
69257;BME280;56376;53.356;-1.748;2024-01-27T01:48:12;100936.69;;;4.11;100.00
69257;BME280;56376;53.356;-1.748;2024-01-27T01:50:38;100931.56;;;4.16;100.00
69257;BME280;56376;53.356;-1.748;2024-01-27T01:53:23;100924.69;;;4.18;100.00
69257;BME280;56376;53.356;-1.748;2024-01-27T01:55:48;100925.56;;;4.18;100.00
69257;BME280;56376;53.356;-1.748;2024-01-27T01:58:15;100935.94;;;4.20;100.00
69257;BME280;56376;53.356;-1.748;2024-01-27T02:00:42;100929.91;;;4.19;100.00
69257;BME280;56376;53.356;-1.748;2024-01-27T02:03:13;100929.94;;;4.22;100.00
69257;BME280;56376;53.356;-1.748;2024-01-27T02:05:39;100927.34;;;4.22;100.00
69257;BME280;56376;53.356;-1.748;2024-01-27T02:08:05;100919.59;;;4.25;100.00
69257;BME280;56376;53.356;-1.748;2024-01-27T02:10:31;100927.41;;;4.27;100.00
69257;BME280;56376;53.356;-1.748;2024-01-27T02:13:04;100929.13;;;4.28;100.00
69257;BME280;56376;53.356;-1.748;2024-01-27T02:15:30;100926.53;;;4.28;100.00
69257;BME280;56376;53.356;-1.748;2024-01-27T02:17:56;100926.56;;;4.29;100.00
69257;BME280;56376;53.356;-1.748;2024-01-27T02:20:21;100924.00;;;4.32;100.00
69257;BME280;56376;53.356;-1.748;2024-01-27T02:22:47;100924.00;;;4.32;100.00
69257;BME280;56376;53.356;-1.748;2024-01-27T02:25:12;100935.25;;;4.34;100.00
69257;BME280;56376;53.356;-1.748;2024-01-27T02:27:38;100921.44;;;4.34;100.00
69257;BME280;56376;53.356;-1.748;2024-01-27T02:30:04;100918.88;;;4.36;100.00
69257;BME280;56376;53.356;-1.748;2024-01-27T02:32:29;100913.72;;;4.37;100.00
69257;BME280;56376;53.356;-1.748;2024-01-27T02:34:55;100921.50;;;4.39;100.00
69257;BME280;56376;53.356;-1.748;2024-01-27T02:37:20;100921.50;;;4.40;100.00
69257;BME280;56376;53.356;-1.748;2024-01-27T02:39:46;100921.47;;;4.37;100.00
69257;BME280;56376;53.356;-1.748;2024-01-27T02:42:30;100923.19;;;4.38;100.00
69257;BME280;56376;53.356;-1.748;2024-01-27T02:44:55;100905.09;;;4.38;100.00
69257;BME280;56376;53.356;-1.748;2024-01-27T02:47:21;100909.44;;;4.39;100.00
69257;BME280;56376;53.356;-1.748;2024-01-27T02:49:46;100903.41;;;4.40;100.00
69257;BME280;56376;53.356;-1.748;2024-01-27T02:52:12;100905.16;;;4.43;100.00
69257;BME280;56376;53.356;-1.748;2024-01-27T02:54:39;100904.31;;;4.45;100.00
69257;BME280;56376;53.356;-1.748;2024-01-27T02:57:04;100899.13;;;4.45;100.00
69257;BME280;56376;53.356;-1.748;2024-01-27T02:59:30;100916.41;;;4.48;100.00
69257;BME280;56376;53.356;-1.748;2024-01-27T03:02:14;100910.41;;;4.49;100.00
69257;BME280;56376;53.356;-1.748;2024-01-27T03:04:39;100916.44;;;4.51;100.00
69257;BME280;56376;53.356;-1.748;2024-01-27T03:07:05;100922.50;;;4.53;100.00
69257;BME280;56376;53.356;-1.748;2024-01-27T03:09:31;100911.28;;;4.52;100.00
69257;BME280;56376;53.356;-1.748;2024-01-27T03:11:59;100906.16;;;4.54;100.00
69257;BME280;56376;53.356;-1.748;2024-01-27T03:14:25;100896.66;;;4.54;100.00
69257;BME280;56376;53.356;-1.748;2024-01-27T03:16:50;100916.50;;;4.55;100.00
69257;BME280;56376;53.356;-1.748;2024-01-27T03:19:16;100900.09;;;4.55;100.00
69257;BME280;56376;53.356;-1.748;2024-01-27T03:21:42;100901.81;;;4.56;100.00
69257;BME280;56376;53.356;-1.748;2024-01-27T03:24:07;100894.94;;;4.55;100.00
69257;BME280;56376;53.356;-1.748;2024-01-27T03:26:33;100900.97;;;4.55;100.00
69257;BME280;56376;53.356;-1.748;2024-01-27T03:28:58;100901.00;;;4.57;100.00
69257;BME280;56376;53.356;-1.748;2024-01-27T03:31:30;100901.88;;;4.59;100.00
69257;BME280;56376;53.356;-1.748;2024-01-27T03:33:58;100905.34;;;4.60;100.00
69257;BME280;56376;53.356;-1.748;2024-01-27T03:36:24;100895.00;;;4.61;100.00
69257;BME280;56376;53.356;-1.748;2024-01-27T03:38:49;100901.03;;;4.62;100.00
69257;BME280;56376;53.356;-1.748;2024-01-27T03:41:15;100903.63;;;4.63;100.00
69257;BME280;56376;53.356;-1.748;2024-01-27T03:43:40;100901.03;;;4.63;100.00
69257;BME280;56376;53.356;-1.748;2024-01-27T03:46:06;100901.94;;;4.65;100.00
69257;BME280;56376;53.356;-1.748;2024-01-27T03:48:32;100916.59;;;4.65;100.00
69257;BME280;56376;53.356;-1.748;2024-01-27T03:50:57;100922.63;;;4.62;100.00
69257;BME280;56376;53.356;-1.748;2024-01-27T03:53:23;100913.13;;;4.63;100.00
69257;BME280;56376;53.356;-1.748;2024-01-27T03:55:48;100920.03;;;4.65;100.00
69257;BME280;56376;53.356;-1.748;2024-01-27T03:58:14;100919.22;;;4.66;100.00
69257;BME280;56376;53.356;-1.748;2024-01-27T04:00:39;100918.31;;;4.66;100.00
69257;BME280;56376;53.356;-1.748;2024-01-27T04:03:05;100913.16;;;4.66;100.00
69257;BME280;56376;53.356;-1.748;2024-01-27T04:05:30;100907.09;;;4.65;100.00
69257;BME280;56376;53.356;-1.748;2024-01-27T04:07:56;100906.28;;;4.68;100.00
69257;BME280;56376;53.356;-1.748;2024-01-27T04:10:22;100905.44;;;4.69;100.00
69257;BME280;56376;53.356;-1.748;2024-01-27T04:12:50;100905.41;;;4.67;100.00
69257;BME280;56376;53.356;-1.748;2024-01-27T04:15:16;100900.25;;;4.69;100.00
69257;BME280;56376;53.356;-1.748;2024-01-27T04:17:41;100905.44;;;4.69;100.00
69257;BME280;56376;53.356;-1.748;2024-01-27T04:20:08;100901.13;;;4.71;100.00
69257;BME280;56376;53.356;-1.748;2024-01-27T04:22:34;100901.13;;;4.71;100.00
69257;BME280;56376;53.356;-1.748;2024-01-27T04:25:00;100897.66;;;4.70;100.00
69257;BME280;56376;53.356;-1.748;2024-01-27T04:27:29;100883.84;;;4.68;100.00
69257;BME280;56376;53.356;-1.748;2024-01-27T04:29:55;100885.59;;;4.71;100.00
69257;BME280;56376;53.356;-1.748;2024-01-27T04:32:20;100885.59;;;4.72;100.00
69257;BME280;56376;53.356;-1.748;2024-01-27T04:34:47;100886.50;;;4.74;100.00
69257;BME280;56376;53.356;-1.748;2024-01-27T04:37:13;100889.09;;;4.74;100.00
69257;BME280;56376;53.356;-1.748;2024-01-27T04:39:39;100883.03;;;4.72;100.00
69257;BME280;56376;53.356;-1.748;2024-01-27T04:42:06;100880.47;;;4.74;100.00
69257;BME280;56376;53.356;-1.748;2024-01-27T04:44:32;100865.78;;;4.74;100.00
69257;BME280;56376;53.356;-1.748;2024-01-27T04:46:58;100864.06;;;4.75;100.00
69257;BME280;56376;53.356;-1.748;2024-01-27T04:49:23;100864.94;;;4.74;100.00
69257;BME280;56376;53.356;-1.748;2024-01-27T04:51:51;100868.34;;;4.73;100.00
69257;BME280;56376;53.356;-1.748;2024-01-27T04:54:16;100863.19;;;4.71;100.00
69257;BME280;56376;53.356;-1.748;2024-01-27T04:56:42;100861.44;;;4.69;100.00
69257;BME280;56376;53.356;-1.748;2024-01-27T04:59:07;100871.75;;;4.67;100.00
69257;BME280;56376;53.356;-1.748;2024-01-27T05:01:33;100870.00;;;4.62;100.00
69257;BME280;56376;53.356;-1.748;2024-01-27T05:03:59;100876.00;;;4.59;100.00
69257;BME280;56376;53.356;-1.748;2024-01-27T05:06:24;100872.50;;;4.55;100.00
69257;BME280;56376;53.356;-1.748;2024-01-27T05:08:50;100880.25;;;4.52;100.00
69257;BME280;56376;53.356;-1.748;2024-01-27T05:11:24;100885.38;;;4.48;100.00
69257;BME280;56376;53.356;-1.748;2024-01-27T05:13:50;100889.63;;;4.41;100.00
69257;BME280;56376;53.356;-1.748;2024-01-27T05:16:15;100880.94;;;4.36;100.00
69257;BME280;56376;53.356;-1.748;2024-01-27T05:18:41;100891.25;;;4.33;100.00
69257;BME280;56376;53.356;-1.748;2024-01-27T05:21:06;100887.75;;;4.29;100.00
69257;BME280;56376;53.356;-1.748;2024-01-27T05:23:32;100887.72;;;4.28;100.00
69257;BME280;56376;53.356;-1.748;2024-01-27T05:25:57;100879.94;;;4.25;100.00
69257;BME280;56376;53.356;-1.748;2024-01-27T05:28:23;100881.69;;;4.27;100.00
69257;BME280;56376;53.356;-1.748;2024-01-27T05:30:48;100882.56;;;4.28;100.00
69257;BME280;56376;53.356;-1.748;2024-01-27T05:33:15;100872.19;;;4.25;100.00
69257;BME280;56376;53.356;-1.748;2024-01-27T05:35:41;100886.91;;;4.30;100.00
69257;BME280;56376;53.356;-1.748;2024-01-27T05:38:07;100884.31;;;4.30;100.00
69257;BME280;56376;53.356;-1.748;2024-01-27T05:40:32;100873.13;;;4.31;100.00
69257;BME280;56376;53.356;-1.748;2024-01-27T05:42:58;100875.72;;;4.33;100.00
69257;BME280;56376;53.356;-1.748;2024-01-27T05:45:23;100867.13;;;4.36;100.00
69257;BME280;56376;53.356;-1.748;2024-01-27T05:47:48;100867.13;;;4.34;100.00
69257;BME280;56376;53.356;-1.748;2024-01-27T05:50:14;100877.50;;;4.37;100.00
69257;BME280;56376;53.356;-1.748;2024-01-27T05:52:58;100869.78;;;4.39;100.00
69257;BME280;56376;53.356;-1.748;2024-01-27T05:55:24;100862.00;;;4.40;100.00
69257;BME280;56376;53.356;-1.748;2024-01-27T05:57:49;100864.59;;;4.40;100.00
69257;BME280;56376;53.356;-1.748;2024-01-27T06:00:15;100865.44;;;4.41;100.00
69257;BME280;56376;53.356;-1.748;2024-01-27T06:02:41;100871.50;;;4.41;100.00
69257;BME280;56376;53.356;-1.748;2024-01-27T06:05:06;100868.06;;;4.42;100.00
69257;BME280;56376;53.356;-1.748;2024-01-27T06:07:34;100862.03;;;4.42;100.00
69257;BME280;56376;53.356;-1.748;2024-01-27T06:09:59;100859.44;;;4.43;100.00
69257;BME280;56376;53.356;-1.748;2024-01-27T06:12:25;100860.31;;;4.45;100.00
69257;BME280;56376;53.356;-1.748;2024-01-27T06:14:50;100863.81;;;4.47;100.00
69257;BME280;56376;53.356;-1.748;2024-01-27T06:17:16;100861.22;;;4.47;100.00
69257;BME280;56376;53.356;-1.748;2024-01-27T06:19:42;100862.06;;;4.48;100.00
69257;BME280;56376;53.356;-1.748;2024-01-27T06:22:07;100874.19;;;4.50;100.00
69257;BME280;56376;53.356;-1.748;2024-01-27T06:24:33;100873.34;;;4.51;100.00
69257;BME280;56376;53.356;-1.748;2024-01-27T06:26:58;100872.50;;;4.54;100.00
69257;BME280;56376;53.356;-1.748;2024-01-27T06:29:24;100864.72;;;4.52;100.00
69257;BME280;56376;53.356;-1.748;2024-01-27T06:31:53;100869.91;;;4.54;100.00
69257;BME280;56376;53.356;-1.748;2024-01-27T06:34:18;100869.97;;;4.59;100.00
69257;BME280;56376;53.356;-1.748;2024-01-27T06:36:44;100878.59;;;4.61;100.00
69257;BME280;56376;53.356;-1.748;2024-01-27T06:39:09;100882.06;;;4.63;100.00
69257;BME280;56376;53.356;-1.748;2024-01-27T06:41:37;100871.75;;;4.64;100.00
69257;BME280;56376;53.356;-1.748;2024-01-27T06:44:02;100879.50;;;4.66;100.00
69257;BME280;56376;53.356;-1.748;2024-01-27T06:46:28;100889.88;;;4.67;100.00
69257;BME280;56376;53.356;-1.748;2024-01-27T06:48:53;100886.41;;;4.68;100.00
69257;BME280;56376;53.356;-1.748;2024-01-27T06:51:19;100870.88;;;4.68;100.00
69257;BME280;56376;53.356;-1.748;2024-01-27T06:53:45;100884.75;;;4.72;100.00
69257;BME280;56376;53.356;-1.748;2024-01-27T06:56:11;100881.31;;;4.74;100.00
69257;BME280;56376;53.356;-1.748;2024-01-27T06:58:36;100876.13;;;4.74;100.00
69257;BME280;56376;53.356;-1.748;2024-01-27T07:01:03;100879.63;;;4.76;100.00
69257;BME280;56376;53.356;-1.748;2024-01-27T07:03:29;100866.69;;;4.76;100.00
69257;BME280;56376;53.356;-1.748;2024-01-27T07:05:55;100871.84;;;4.78;100.00
69257;BME280;56376;53.356;-1.748;2024-01-27T07:08:20;100862.34;;;4.77;100.00
69257;BME280;56376;53.356;-1.748;2024-01-27T07:10:46;100871.00;;;4.79;100.00
69257;BME280;56376;53.356;-1.748;2024-01-27T07:13:30;100870.16;;;4.80;100.00
69257;BME280;56376;53.356;-1.748;2024-01-27T07:15:58;100871.84;;;4.78;100.00
69257;BME280;56376;53.356;-1.748;2024-01-27T07:18:24;100871.88;;;4.80;100.00
69257;BME280;56376;53.356;-1.748;2024-01-27T07:20:51;100869.28;;;4.80;100.00
69257;BME280;56376;53.356;-1.748;2024-01-27T07:23:17;100870.16;;;4.80;100.00
69257;BME280;56376;53.356;-1.748;2024-01-27T07:25:43;100867.59;;;4.82;100.00
69257;BME280;56376;53.356;-1.748;2024-01-27T07:28:09;100877.94;;;4.82;100.00
69257;BME280;56376;53.356;-1.748;2024-01-27T07:30:34;100871.00;;;4.79;100.00
69257;BME280;56376;53.356;-1.748;2024-01-27T07:33:00;100877.03;;;4.81;100.00
69257;BME280;56376;53.356;-1.748;2024-01-27T07:35:25;100889.16;;;4.84;100.00
69257;BME280;56376;53.356;-1.748;2024-01-27T07:37:51;100889.19;;;4.87;100.00
69257;BME280;56376;53.356;-1.748;2024-01-27T07:40:16;100884.84;;;4.86;100.00
69257;BME280;56376;53.356;-1.748;2024-01-27T07:42:43;100872.78;;;4.88;100.00
69257;BME280;56376;53.356;-1.748;2024-01-27T07:45:09;100871.06;;;4.87;100.00
69257;BME280;56376;53.356;-1.748;2024-01-27T07:47:34;100879.69;;;4.89;100.00
69257;BME280;56376;53.356;-1.748;2024-01-27T07:50:00;100873.66;;;4.88;100.00
69257;BME280;56376;53.356;-1.748;2024-01-27T07:52:25;100876.25;;;4.87;100.00
69257;BME280;56376;53.356;-1.748;2024-01-27T07:54:51;100891.81;;;4.90;100.00
69257;BME280;56376;53.356;-1.748;2024-01-27T07:57:16;100878.88;;;4.91;100.00
69257;BME280;56376;53.356;-1.748;2024-01-27T07:59:42;100879.72;;;4.90;100.00
69257;BME280;56376;53.356;-1.748;2024-01-27T08:02:07;100880.59;;;4.91;100.00
69257;BME280;56376;53.356;-1.748;2024-01-27T08:04:33;100881.47;;;4.91;100.00
69257;BME280;56376;53.356;-1.748;2024-01-27T08:06:58;100892.69;;;4.93;100.00
69257;BME280;56376;53.356;-1.748;2024-01-27T08:09:24;100891.00;;;4.94;100.00
69257;BME280;56376;53.356;-1.748;2024-01-27T08:11:54;100901.34;;;4.95;100.00
69257;BME280;56376;53.356;-1.748;2024-01-27T08:14:19;100897.88;;;4.93;100.00
69257;BME280;56376;53.356;-1.748;2024-01-27T08:16:46;100892.72;;;4.95;100.00
69257;BME280;56376;53.356;-1.748;2024-01-27T08:19:11;100895.31;;;4.95;100.00
69257;BME280;56376;53.356;-1.748;2024-01-27T08:21:37;100889.25;;;4.96;100.00
69257;BME280;56376;53.356;-1.748;2024-01-27T08:24:02;100889.25;;;4.96;100.00
69257;BME280;56376;53.356;-1.748;2024-01-27T08:26:28;100887.53;;;4.95;100.00
69257;BME280;56376;53.356;-1.748;2024-01-27T08:28:53;100890.13;;;4.95;100.00
69257;BME280;56376;53.356;-1.748;2024-01-27T08:31:21;100887.53;;;4.95;100.00
69257;BME280;56376;53.356;-1.748;2024-01-27T08:33:47;100884.06;;;4.96;100.00
69257;BME280;56376;53.356;-1.748;2024-01-27T08:36:13;100890.16;;;4.98;100.00
69257;BME280;56376;53.356;-1.748;2024-01-27T08:38:40;100890.16;;;4.98;100.00
69257;BME280;56376;53.356;-1.748;2024-01-27T08:41:05;100892.75;;;4.96;100.00
69257;BME280;56376;53.356;-1.748;2024-01-27T08:43:32;100884.13;;;4.99;100.00
69257;BME280;56376;53.356;-1.748;2024-01-27T08:45:57;100887.56;;;5.01;100.00
69257;BME280;56376;53.356;-1.748;2024-01-27T08:48:25;100887.56;;;4.99;100.00
69257;BME280;56376;53.356;-1.748;2024-01-27T08:50:51;100886.72;;;4.99;100.00
69257;BME280;56376;53.356;-1.748;2024-01-27T08:53:16;100881.53;;;5.01;100.00
69257;BME280;56376;53.356;-1.748;2024-01-27T08:55:42;100878.97;;;5.02;100.00
69257;BME280;56376;53.356;-1.748;2024-01-27T08:58:08;100886.75;;;5.05;100.00
69257;BME280;56376;53.356;-1.748;2024-01-27T09:00:33;100880.72;;;5.05;100.00
69257;BME280;56376;53.356;-1.748;2024-01-27T09:02:59;100887.63;;;5.06;100.00
69257;BME280;56376;53.356;-1.748;2024-01-27T09:05:25;100881.56;;;5.02;100.00
69257;BME280;56376;53.356;-1.748;2024-01-27T09:07:50;100877.25;;;5.06;100.00
69257;BME280;56376;53.356;-1.748;2024-01-27T09:10:16;100879.00;;;5.07;100.00
69257;BME280;56376;53.356;-1.748;2024-01-27T09:12:42;100883.31;;;5.08;100.00
69257;BME280;56376;53.356;-1.748;2024-01-27T09:15:08;100888.53;;;5.09;100.00
69257;BME280;56376;53.356;-1.748;2024-01-27T09:17:33;100879.84;;;5.09;100.00
69257;BME280;56376;53.356;-1.748;2024-01-27T09:19:59;100894.53;;;5.07;100.00
69257;BME280;56376;53.356;-1.748;2024-01-27T09:22:24;100893.69;;;5.09;100.00
69257;BME280;56376;53.356;-1.748;2024-01-27T09:24:51;100905.81;;;5.12;100.00
69257;BME280;56376;53.356;-1.748;2024-01-27T09:27:17;100905.81;;;5.12;100.00
69257;BME280;56376;53.356;-1.748;2024-01-27T09:29:43;100891.13;;;5.12;100.00
69257;BME280;56376;53.356;-1.748;2024-01-27T09:32:09;100897.16;;;5.10;100.00
69257;BME280;56376;53.356;-1.748;2024-01-27T09:34:35;100902.31;;;5.11;100.00
69257;BME280;56376;53.356;-1.748;2024-01-27T09:37:01;100897.16;;;5.10;100.00
69257;BME280;56376;53.356;-1.748;2024-01-27T09:39:26;100905.81;;;5.13;100.00
69257;BME280;56376;53.356;-1.748;2024-01-27T09:41:54;100915.31;;;5.13;100.00
69257;BME280;56376;53.356;-1.748;2024-01-27T09:44:20;100915.31;;;5.16;100.00
69257;BME280;56376;53.356;-1.748;2024-01-27T09:46:46;100920.50;;;5.14;100.00
69257;BME280;56376;53.356;-1.748;2024-01-27T09:49:14;100924.81;;;5.15;100.00
69257;BME280;56376;53.356;-1.748;2024-01-27T09:51:41;100916.16;;;5.13;100.00
69257;BME280;56376;53.356;-1.748;2024-01-27T09:54:06;100927.41;;;5.15;100.00
69257;BME280;56376;53.356;-1.748;2024-01-27T09:56:32;100927.38;;;5.14;100.00
69257;BME280;56376;53.356;-1.748;2024-01-27T09:58:59;100921.34;;;5.16;100.00
69257;BME280;56376;53.356;-1.748;2024-01-27T10:01:26;100923.94;;;5.16;100.00
69257;BME280;56376;53.356;-1.748;2024-01-27T10:04:13;100923.94;;;5.13;100.00
69257;BME280;56376;53.356;-1.748;2024-01-27T10:06:40;100910.13;;;5.13;100.00
69257;BME280;56376;53.356;-1.748;2024-01-27T10:09:06;100915.31;;;5.14;100.00
69257;BME280;56376;53.356;-1.748;2024-01-27T10:11:34;100921.34;;;5.13;100.00
69257;BME280;56376;53.356;-1.748;2024-01-27T10:14:01;100923.09;;;5.14;100.00
69257;BME280;56376;53.356;-1.748;2024-01-27T10:16:28;100935.19;;;5.18;100.00
69257;BME280;56376;53.356;-1.748;2024-01-27T10:19:02;100936.94;;;5.18;100.00
69257;BME280;56376;53.356;-1.748;2024-01-27T10:21:28;100934.31;;;5.16;100.00
69257;BME280;56376;53.356;-1.748;2024-01-27T10:23:54;100934.34;;;5.18;100.00
69257;BME280;56376;53.356;-1.748;2024-01-27T10:26:19;100937.78;;;5.17;100.00
69257;BME280;56376;53.356;-1.748;2024-01-27T10:28:55;100930.88;;;5.16;100.00
69257;BME280;56376;53.356;-1.748;2024-01-27T10:31:26;100923.09;;;5.14;100.00
69257;BME280;56376;53.356;-1.748;2024-01-27T10:33:53;100919.69;;;5.21;100.00
69257;BME280;56376;53.356;-1.748;2024-01-27T10:36:19;100914.56;;;5.31;100.00
69257;BME280;56376;53.356;-1.748;2024-01-27T10:38:45;100915.47;;;5.39;100.00
69257;BME280;56376;53.356;-1.748;2024-01-27T10:41:10;100914.72;;;5.51;100.00
69257;BME280;56376;53.356;-1.748;2024-01-27T10:43:37;100913.91;;;5.61;100.00
69257;BME280;56376;53.356;-1.748;2024-01-27T10:46:07;100911.38;;;5.67;100.00
69257;BME280;56376;53.356;-1.748;2024-01-27T10:48:36;100920.06;;;5.75;100.00
69257;BME280;56376;53.356;-1.748;2024-01-27T10:51:09;100905.38;;;5.79;100.00
69257;BME280;56376;53.356;-1.748;2024-01-27T10:53:36;100902.78;;;5.80;100.00
69257;BME280;56376;53.356;-1.748;2024-01-27T10:56:05;100900.22;;;5.83;100.00
69257;BME280;56376;53.356;-1.748;2024-01-27T10:58:34;100902.84;;;5.90;100.00
69257;BME280;56376;53.356;-1.748;2024-01-27T11:01:08;100889.94;;;5.96;100.00
69257;BME280;56376;53.356;-1.748;2024-01-27T11:03:38;100890.81;;;6.04;100.00
69257;BME280;56376;53.356;-1.748;2024-01-27T11:06:05;100894.31;;;6.14;100.00
69257;BME280;56376;53.356;-1.748;2024-01-27T11:08:33;100887.41;;;6.14;100.00
69257;BME280;56376;53.356;-1.748;2024-01-27T11:10:59;100875.31;;;6.19;100.00
69257;BME280;56376;53.356;-1.748;2024-01-27T11:13:30;100878.78;;;6.26;100.00
69257;BME280;56376;53.356;-1.748;2024-01-27T11:15:56;100868.41;;;6.32;100.00
69257;BME280;56376;53.356;-1.748;2024-01-27T11:18:24;100874.50;;;6.36;100.00
69257;BME280;56376;53.356;-1.748;2024-01-27T11:20:54;100871.91;;;6.36;100.00
69257;BME280;56376;53.356;-1.748;2024-01-27T11:23:20;100873.63;;;6.41;100.00
69257;BME280;56376;53.356;-1.748;2024-01-27T11:25:45;100879.72;;;6.40;100.00
69257;BME280;56376;53.356;-1.748;2024-01-27T11:28:17;100865.84;;;6.41;100.00
69257;BME280;56376;53.356;-1.748;2024-01-27T11:30:51;100875.38;;;6.48;100.00
69257;BME280;56376;53.356;-1.748;2024-01-27T11:33:24;100866.72;;;6.42;100.00
69257;BME280;56376;53.356;-1.748;2024-01-27T11:36:01;100871.91;;;6.42;100.00
69257;BME280;56376;53.356;-1.748;2024-01-27T11:38:27;100858.94;;;6.39;100.00
69257;BME280;56376;53.356;-1.748;2024-01-27T11:40:53;100860.66;;;6.38;100.00
69257;BME280;56376;53.356;-1.748;2024-01-27T11:43:19;100863.25;;;6.38;100.00
69257;BME280;56376;53.356;-1.748;2024-01-27T11:45:57;100859.81;;;6.41;100.00
69257;BME280;56376;53.356;-1.748;2024-01-27T11:48:23;100860.66;;;6.35;100.00
69257;BME280;56376;53.356;-1.748;2024-01-27T11:50:59;100858.06;;;6.37;100.00
69257;BME280;56376;53.356;-1.748;2024-01-27T11:53:25;100846.81;;;6.38;100.00
69257;BME280;56376;53.356;-1.748;2024-01-27T11:55:56;100836.44;;;6.38;100.00
69257;BME280;56376;53.356;-1.748;2024-01-27T11:58:22;100833.00;;;6.40;100.00
69257;BME280;56376;53.356;-1.748;2024-01-27T12:00:47;100834.72;;;6.44;100.00
69257;BME280;56376;53.356;-1.748;2024-01-27T12:03:14;100827.78;;;6.46;100.00
69257;BME280;56376;53.356;-1.748;2024-01-27T12:05:40;100829.53;;;6.49;100.00
69257;BME280;56376;53.356;-1.748;2024-01-27T12:08:08;100832.13;;;6.52;100.00
69257;BME280;56376;53.356;-1.748;2024-01-27T12:10:33;100829.53;;;6.57;100.00
69257;BME280;56376;53.356;-1.748;2024-01-27T12:13:00;100844.25;;;6.58;100.00
69257;BME280;56376;53.356;-1.748;2024-01-27T12:15:26;100830.38;;;6.57;100.00
69257;BME280;56376;53.356;-1.748;2024-01-27T12:17:52;100824.34;;;6.58;100.00
69257;BME280;56376;53.356;-1.748;2024-01-27T12:20:18;100820.03;;;6.59;100.00
69257;BME280;56376;53.356;-1.748;2024-01-27T12:22:44;100820.03;;;6.60;100.00
69257;BME280;56376;53.356;-1.748;2024-01-27T12:25:11;100809.63;;;6.66;100.00
69257;BME280;56376;53.356;-1.748;2024-01-27T12:27:39;100811.38;;;6.74;100.00
69257;BME280;56376;53.356;-1.748;2024-01-27T12:30:05;100812.22;;;6.82;100.00
69257;BME280;56376;53.356;-1.748;2024-01-27T12:32:32;100813.94;;;6.97;100.00
69257;BME280;56376;53.356;-1.748;2024-01-27T12:34:58;100804.41;;;7.08;100.00
69257;BME280;56376;53.356;-1.748;2024-01-27T12:37:25;100799.19;;;7.23;100.00